Time;durP1;ratioP1;P1;durP2;ratioP2;P2;SDS_P1;SDS_P2;PMS_P1;PMS_P2;Temp;Humidity;BMP_temperature;BMP_pressure;BME280_temperature;BME280_humidity;BME280_pressure;Samples;Min_cycle;Max_cycle;Signal;HPM_P1;HPM_P2
2023/01/20 00:01:38;;;;;;;0.10;0.10;;;;;;;-2.20;100.00;100231.41;6207981;23;20307;-79
2023/01/20 00:04:24;;;;;;;0.10;0.10;;;;;;;-2.21;100.00;100224.38;6217278;23;20008;-79
2023/01/20 00:06:53;;;;;;;0.10;0.10;;;;;;;-2.39;100.00;100200.69;6218109;23;20000;-79
2023/01/20 00:09:21;;;;;;;0.00;0.00;;;;;;;-2.18;100.00;100229.34;6213519;23;20016;-77
2023/01/20 00:11:46;;;;;;;0.10;0.10;;;;;;;-2.12;100.00;100246.53;6209719;23;20092;-77
2023/01/20 00:14:12;;;;;;;0.10;0.10;;;;;;;-2.13;100.00;100242.22;6209620;23;20352;-76
2023/01/20 00:16:37;;;;;;;0.00;0.00;;;;;;;-2.12;100.00;100246.53;6212616;23;20154;-77
2023/01/20 00:19:03;;;;;;;0.00;0.00;;;;;;;-2.12;100.00;100241.19;6182442;23;20009;-77
2023/01/20 00:21:28;;;;;;;0.00;0.00;;;;;;;-2.14;100.00;100243.22;6211456;23;20026;-74
2023/01/20 00:23:54;;;;;;;0.00;0.00;;;;;;;-2.13;100.00;100252.94;6184896;23;20001;-75
2023/01/20 00:26:22;;;;;;;0.00;0.00;;;;;;;-2.15;100.00;100250.41;6208522;23;21385;-73
2023/01/20 00:28:49;;;;;;;0.00;0.00;;;;;;;-2.16;100.00;100247.91;6184592;23;20001;-74
2023/01/20 00:31:16;;;;;;;0.10;0.10;;;;;;;-2.30;100.00;100230.88;6204945;23;20822;-75
2023/01/20 00:33:41;;;;;;;0.00;0.00;;;;;;;-2.18;100.00;100249.97;6212887;23;20809;-74
2023/01/20 00:36:09;;;;;;;0.10;0.10;;;;;;;-2.12;100.00;100254.56;6207881;23;20012;-76
2023/01/20 00:38:34;;;;;;;0.05;0.05;;;;;;;-2.21;100.00;100239.63;6210549;23;20329;-74
2023/01/20 00:41:00;;;;;;;0.10;0.10;;;;;;;-2.20;100.00;100252.03;6210974;23;20029;-74
2023/01/20 00:43:25;;;;;;;0.10;0.10;;;;;;;-2.19;100.00;100259.03;6181327;23;20038;-74
2023/01/20 00:45:51;;;;;;;0.10;0.10;;;;;;;-2.14;100.00;100251.25;6182208;23;20035;-75
2023/01/20 00:48:19;;;;;;;0.00;0.00;;;;;;;-2.08;100.00;100260.41;6207885;23;20012;-73
2023/01/20 00:50:45;;;;;;;0.00;0.00;;;;;;;-2.06;100.00;100259.19;6184559;23;20431;-76
2023/01/20 00:53:10;;;;;;;0.10;0.10;;;;;;;-2.02;100.00;100254.28;6206559;23;20001;-77
2023/01/20 00:55:35;;;;;;;0.10;0.10;;;;;;;-2.02;100.00;100249.75;6209018;23;20005;-76
2023/01/20 00:58:01;;;;;;;0.00;0.00;;;;;;;-1.98;100.00;100261.75;6186757;23;20011;-77
2023/01/20 01:00:26;;;;;;;0.00;0.00;;;;;;;-1.98;100.00;100260.94;6184586;23;20004;-78
2023/01/20 01:02:52;;;;;;;0.10;0.10;;;;;;;-2.01;100.00;100259.47;6161288;23;20005;-76
2023/01/20 01:05:17;;;;;;;0.10;0.10;;;;;;;-2.08;100.00;100263.09;6208136;23;20024;-76
2023/01/20 01:07:43;;;;;;;0.00;0.00;;;;;;;-2.13;100.00;100269.00;6213996;23;20028;-76
2023/01/20 01:10:09;;;;;;;0.00;0.00;;;;;;;-2.08;100.00;100274.63;6182454;23;20454;-76
2023/01/20 01:12:35;;;;;;;0.10;0.10;;;;;;;-2.08;100.00;100281.84;6212973;23;20004;-75
2023/01/20 01:15:00;;;;;;;0.00;0.00;;;;;;;-2.04;100.00;100288.50;6212786;23;20009;-76
2023/01/20 01:17:25;;;;;;;0.10;0.10;;;;;;;-2.09;100.00;100272.97;6209071;23;20000;-75
2023/01/20 01:19:52;;;;;;;0.00;0.00;;;;;;;-2.02;100.00;100292.63;6213202;23;20012;-76
2023/01/20 01:22:18;;;;;;;0.10;0.10;;;;;;;-2.01;100.00;100286.25;6212035;23;20057;-76
2023/01/20 01:24:43;;;;;;;0.00;0.00;;;;;;;-2.06;100.00;100275.25;6208419;23;19997;-76
2023/01/20 01:27:09;;;;;;;0.10;0.10;;;;;;;-1.94;100.00;100294.41;6185190;23;20011;-76
2023/01/20 01:29:35;;;;;;;0.10;0.10;;;;;;;-1.97;100.00;100289.38;6208996;23;20012;-76
2023/01/20 01:32:00;;;;;;;0.00;0.00;;;;;;;-1.98;100.00;100293.09;6213937;23;20038;-77
2023/01/20 01:34:26;;;;;;;0.10;0.10;;;;;;;-1.96;100.00;100299.94;6205838;23;20028;-75
2023/01/20 01:36:51;;;;;;;0.10;0.10;;;;;;;-2.02;100.00;100297.16;6210204;23;20016;-74
2023/01/20 01:39:16;;;;;;;0.00;0.00;;;;;;;-1.99;100.00;100304.84;6184031;23;20015;-74
2023/01/20 01:41:42;;;;;;;0.10;0.10;;;;;;;-2.02;100.00;100308.72;6181186;23;20008;-73
2023/01/20 01:44:10;;;;;;;0.10;0.10;;;;;;;-2.02;100.00;100319.44;6186199;23;20023;-74
2023/01/20 01:46:39;;;;;;;0.10;0.10;;;;;;;-2.08;100.00;100314.81;6206455;23;20008;-74
2023/01/20 01:49:10;;;;;;;0.10;0.10;;;;;;;-2.09;100.00;100318.50;6186730;23;20047;-74
2023/01/20 01:51:42;;;;;;;0.10;0.10;;;;;;;-2.12;100.00;100310.84;6207028;23;20652;-74
2023/01/20 01:54:12;;;;;;;0.10;0.10;;;;;;;-2.08;100.00;100328.22;6211064;23;20327;-72
2023/01/20 01:56:41;;;;;;;0.10;0.10;;;;;;;-2.12;100.00;100329.59;6207419;23;20001;-74
2023/01/20 01:59:07;;;;;;;0.10;0.10;;;;;;;-2.13;100.00;100334.13;6209654;23;20009;-73
2023/01/20 02:01:36;;;;;;;0.10;0.10;;;;;;;-2.20;100.00;100338.56;6181627;23;20447;-74
2023/01/20 02:04:08;;;;;;;0.00;0.00;;;;;;;-2.21;100.00;100341.44;6207885;23;20062;-73
2023/01/20 02:06:37;;;;;;;0.10;0.10;;;;;;;-2.16;100.00;100347.06;6205075;23;20014;-73
2023/01/20 02:09:03;;;;;;;0.10;0.10;;;;;;;-2.16;100.00;100350.59;6210191;23;20056;-74
2023/01/20 02:11:35;;;;;;;0.10;0.10;;;;;;;-2.14;100.00;100353.09;6209737;23;20450;-74
2023/01/20 02:14:01;;;;;;;0.10;0.10;;;;;;;-2.13;100.00;100344.84;6202529;23;20008;-75
2023/01/20 02:17:00;;;;;;;0.00;0.00;;;;;;;-2.01;100.00;100358.63;6208469;23;20419;-76
2023/01/20 02:19:45;;;;;;;0.10;0.10;;;;;;;-1.95;100.00;100363.22;6205481;23;20007;-74
2023/01/20 02:22:17;;;;;;;0.10;0.10;;;;;;;-1.84;100.00;100355.75;6208118;23;20012;-74
2023/01/20 02:24:45;;;;;;;0.10;0.10;;;;;;;-1.81;100.00;100363.41;6203440;23;20372;-74
2023/01/20 02:27:22;;;;;;;0.10;0.10;;;;;;;-1.73;100.00;100357.94;6210299;23;20009;-74
2023/01/20 02:30:25;;;;;;;0.10;0.10;;;;;;;-1.67;100.00;100362.56;6203609;23;20020;-74
2023/01/20 02:32:59;;;;;;;0.10;0.10;;;;;;;-1.63;100.00;100360.34;6205729;23;20004;-74
2023/01/20 02:35:28;;;;;;;0.10;0.10;;;;;;;-1.64;100.00;100370.22;6210583;23;20071;-74
2023/01/20 02:38:02;;;;;;;0.00;0.00;;;;;;;-1.68;100.00;100360.91;6205156;23;20066;-74
2023/01/20 02:40:40;;;;;;;0.10;0.10;;;;;;;-1.65;100.00;100365.91;6207992;23;20000;-74
2023/01/20 02:43:17;;;;;;;0.10;0.10;;;;;;;-1.61;100.00;100369.88;6205078;23;20013;-74
2023/01/20 02:46:09;;;;;;;0.00;0.00;;;;;;;-1.59;100.00;100375.88;6210013;23;20000;-74
2023/01/20 02:48:45;;;;;;;0.10;0.10;;;;;;;-1.59;100.00;100367.00;6208528;23;20543;-75
2023/01/20 02:51:19;;;;;;;0.10;0.10;;;;;;;-1.58;100.00;100358.78;6210041;23;19997;-75
2023/01/20 02:53:57;;;;;;;0.10;0.10;;;;;;;-1.54;100.00;100374.50;6208733;23;20011;-74
2023/01/20 02:56:25;;;;;;;0.10;0.10;;;;;;;-1.51;100.00;100363.38;6205702;23;20007;-76
2023/01/20 02:58:56;;;;;;;0.10;0.10;;;;;;;-1.47;100.00;100360.13;6208824;23;20027;-74
2023/01/20 03:01:32;;;;;;;0.00;0.00;;;;;;;-1.46;100.00;100366.31;6207813;23;20009;-75
2023/01/20 03:04:01;;;;;;;0.10;0.10;;;;;;;-1.46;100.00;100367.16;6208135;23;20039;-75
2023/01/20 03:06:32;;;;;;;0.00;0.00;;;;;;;-1.42;100.00;100372.97;6209145;23;20052;-75
2023/01/20 03:09:01;;;;;;;0.10;0.10;;;;;;;-1.45;100.00;100378.72;6207495;23;20007;-74
2023/01/20 03:11:30;;;;;;;0.10;0.10;;;;;;;-1.44;100.00;100367.78;6210223;23;20090;-75
2023/01/20 03:13:58;;;;;;;0.10;0.10;;;;;;;-1.44;100.00;100375.84;6205664;23;20012;-75
2023/01/20 03:16:26;;;;;;;0.10;0.10;;;;;;;-1.51;100.00;100369.56;6211850;23;20008;-74
2023/01/20 03:18:54;;;;;;;0.10;0.10;;;;;;;-1.49;100.00;100366.69;6210225;23;20020;-75
2023/01/20 03:21:20;;;;;;;0.10;0.10;;;;;;;-1.52;100.00;100372.44;6181645;23;20012;-76
2023/01/20 03:23:48;;;;;;;0.03;0.03;;;;;;;-1.49;100.00;100382.78;6211773;23;20001;-75
2023/01/20 03:26:16;;;;;;;0.10;0.10;;;;;;;-1.51;100.00;100384.84;6207500;23;20083;-74
2023/01/20 03:28:43;;;;;;;0.10;0.10;;;;;;;-1.58;100.00;100377.56;6184749;23;20004;-75
2023/01/20 03:31:17;;;;;;;0.10;0.10;;;;;;;-1.59;100.00;100373.19;6207900;23;20008;-74
2023/01/20 03:33:45;;;;;;;0.10;0.10;;;;;;;-1.58;100.00;100380.22;6211543;23;20032;-75
2023/01/20 03:36:12;;;;;;;0.10;0.10;;;;;;;-1.54;100.00;100388.72;6180477;23;20095;-74
2023/01/20 03:38:38;;;;;;;0.10;0.10;;;;;;;-1.54;100.00;100379.84;6210752;23;20627;-75
2023/01/20 03:41:25;;;;;;;0.10;0.10;;;;;;;-1.55;100.00;100395.09;6182136;23;20032;-74
2023/01/20 03:43:54;;;;;;;0.10;0.10;;;;;;;-1.52;100.00;100383.16;6209366;23;20079;-76
2023/01/20 03:46:39;;;;;;;0.00;0.00;;;;;;;-1.52;100.00;100383.16;6203247;23;20331;-74
2023/01/20 03:49:28;;;;;;;0.10;0.10;;;;;;;-1.53;100.00;100378.81;6210729;23;20015;-75
2023/01/20 03:52:06;;;;;;;0.00;0.00;;;;;;;-1.51;100.00;100390.19;6206853;23;20000;-75
2023/01/20 03:54:49;;;;;;;0.00;0.00;;;;;;;-1.52;100.00;100388.53;6210601;23;20016;-75
2023/01/20 03:57:25;;;;;;;0.10;0.10;;;;;;;-1.48;100.00;100401.38;6212498;23;20047;-74
2023/01/20 03:59:51;;;;;;;0.00;0.00;;;;;;;-1.52;100.00;100399.25;6210109;23;20088;-74
2023/01/20 04:02:18;;;;;;;0.00;0.00;;;;;;;-1.53;100.00;100402.94;6208196;23;20008;-75
2023/01/20 04:04:47;;;;;;;0.10;0.10;;;;;;;-1.54;100.00;100404.00;6211151;23;20419;-74
2023/01/20 04:07:21;;;;;;;0.10;0.10;;;;;;;-1.54;100.00;100412.03;6207907;23;20012;-75
2023/01/20 04:09:51;;;;;;;0.10;0.10;;;;;;;-1.60;100.00;100400.19;6208985;23;20000;-76
2023/01/20 04:12:17;;;;;;;0.10;0.10;;;;;;;-1.59;100.00;100413.41;6205345;23;20313;-75
2023/01/20 04:14:42;;;;;;;0.00;0.00;;;;;;;-1.64;100.00;100415.00;6185122;23;20008;-75
2023/01/20 04:17:08;;;;;;;0.10;0.10;;;;;;;-1.61;100.00;100417.31;6186083;23;20019;-75
2023/01/20 04:19:34;;;;;;;0.10;0.10;;;;;;;-1.59;100.00;100426.00;6206803;23;20016;-75
2023/01/20 04:22:23;;;;;;;0.10;0.10;;;;;;;-1.66;100.00;100423.22;6212919;23;20008;-75
2023/01/20 04:25:07;;;;;;;0.00;0.00;;;;;;;-1.63;100.00;100425.53;6212340;23;20015;-74
2023/01/20 04:27:32;;;;;;;0.10;0.10;;;;;;;-1.64;100.00;100423.84;6211134;23;20015;-75
2023/01/20 04:29:58;;;;;;;0.00;0.00;;;;;;;-1.64;100.00;100421.19;6185956;23;20372;-74
2023/01/20 04:32:23;;;;;;;0.10;0.10;;;;;;;-1.62;100.00;100429.88;6185806;23;20005;-75
2023/01/20 04:34:50;;;;;;;0.10;0.10;;;;;;;-1.61;100.00;100426.19;6206071;23;20115;-76
2023/01/20 04:37:17;;;;;;;0.10;0.10;;;;;;;-1.59;100.00;100429.50;6186606;23;20004;-75
2023/01/20 04:39:42;;;;;;;0.00;0.00;;;;;;;-1.54;100.00;100433.50;6206428;23;20032;-76
2023/01/20 04:42:11;;;;;;;0.00;0.00;;;;;;;-1.50;100.00;100434.78;6184706;23;20015;-75
2023/01/20 04:44:37;;;;;;;0.00;0.00;;;;;;;-1.55;100.00;100431.81;6184974;23;20015;-75
2023/01/20 04:47:02;;;;;;;0.10;0.10;;;;;;;-1.47;100.00;100439.78;6182164;23;20009;-74
2023/01/20 04:49:28;;;;;;;0.10;0.10;;;;;;;-1.45;100.00;100443.09;6209887;23;20008;-75
2023/01/20 04:51:53;;;;;;;0.00;0.00;;;;;;;-1.48;100.00;100438.09;6155311;23;20015;-75
2023/01/20 04:54:19;;;;;;;0.10;0.10;;;;;;;-1.44;100.00;100440.22;6185994;23;20000;-76
2023/01/20 04:56:46;;;;;;;0.10;0.10;;;;;;;-1.46;100.00;100439.59;6207376;23;20012;-73
2023/01/20 04:59:11;;;;;;;0.10;0.10;;;;;;;-1.47;100.00;100451.31;6211094;23;20082;-76
2023/01/20 05:01:37;;;;;;;0.10;0.10;;;;;;;-1.51;100.00;100447.34;6185965;23;20036;-74
2023/01/20 05:04:02;;;;;;;0.00;0.00;;;;;;;-1.50;100.00;100450.88;6158623;23;20019;-74
2023/01/20 05:06:28;;;;;;;0.10;0.10;;;;;;;-1.52;100.00;100448.38;6186036;23;20104;-74
2023/01/20 05:08:53;;;;;;;0.10;0.10;;;;;;;-1.53;100.00;100448.53;6182500;23;20009;-74
2023/01/20 05:11:18;;;;;;;0.10;0.10;;;;;;;-1.53;100.00;100456.59;6185564;23;20012;-75
2023/01/20 05:13:44;;;;;;;0.00;0.00;;;;;;;-1.53;100.00;100451.22;6208073;23;20026;-74
2023/01/20 05:16:10;;;;;;;0.00;0.00;;;;;;;-1.61;100.00;100450.34;6211073;23;20415;-74
2023/01/20 05:18:35;;;;;;;0.00;0.00;;;;;;;-1.59;100.00;100459.00;6186205;23;20033;-76
2023/01/20 05:21:03;;;;;;;0.10;0.10;;;;;;;-1.58;100.00;100455.31;6206791;23;20021;-75
2023/01/20 05:23:29;;;;;;;0.10;0.10;;;;;;;-1.55;100.00;100462.16;6211495;23;20008;-75
2023/01/20 05:25:54;;;;;;;0.10;0.10;;;;;;;-1.58;100.00;100458.00;6207675;23;20078;-75
2023/01/20 05:28:20;;;;;;;0.10;0.10;;;;;;;-1.60;100.00;100457.34;6186481;23;20412;-75
2023/01/20 05:30:47;;;;;;;0.10;0.10;;;;;;;-1.53;100.00;100468.16;6208277;23;20005;-74
2023/01/20 05:33:13;;;;;;;0.10;0.10;;;;;;;-1.58;100.00;100470.56;6160569;23;20104;-74
2023/01/20 05:35:39;;;;;;;0.00;0.00;;;;;;;-1.57;100.00;100477.59;6160780;23;20016;-74
2023/01/20 05:38:05;;;;;;;0.10;0.10;;;;;;;-1.58;100.00;100482.16;6204479;23;20005;-74
2023/01/20 05:40:31;;;;;;;0.10;0.10;;;;;;;-1.55;100.00;100485.47;6185865;23;20015;-73
2023/01/20 05:43:02;;;;;;;0.10;0.10;;;;;;;-1.58;100.00;100487.50;6181214;23;20024;-74
2023/01/20 05:45:29;;;;;;;0.10;0.10;;;;;;;-1.62;100.00;100480.84;6209102;23;20015;-73
2023/01/20 05:47:56;;;;;;;0.08;0.08;;;;;;;-1.60;100.00;100489.53;6209221;23;20091;-74
2023/01/20 05:50:23;;;;;;;0.00;0.00;;;;;;;-1.63;100.00;100486.41;6211170;23;20012;-74
2023/01/20 05:52:49;;;;;;;0.10;0.10;;;;;;;-1.61;100.00;100493.25;6209803;23;20058;-74
2023/01/20 05:55:14;;;;;;;0.00;0.00;;;;;;;-1.55;100.00;100501.56;6210120;23;20009;-74
2023/01/20 05:57:40;;;;;;;0.10;0.10;;;;;;;-1.58;100.00;100498.22;6208693;23;20004;-73
2023/01/20 06:00:06;;;;;;;0.10;0.10;;;;;;;-1.53;100.00;100510.22;6182423;23;20103;-74
2023/01/20 06:02:31;;;;;;;0.10;0.10;;;;;;;-1.52;100.00;100503.88;6208848;23;20424;-73
2023/01/20 06:05:00;;;;;;;0.00;0.00;;;;;;;-1.50;100.00;100504.53;6153441;23;20082;-74
2023/01/20 06:07:27;;;;;;;0.10;0.10;;;;;;;-1.44;100.00;100506.47;6183273;23;20032;-74
2023/01/20 06:09:52;;;;;;;0.00;0.00;;;;;;;-1.45;100.00;100507.47;6207168;23;20005;-75
2023/01/20 06:12:18;;;;;;;0.10;0.10;;;;;;;-1.49;100.00;100507.03;6211965;23;20017;-75
2023/01/20 06:14:43;;;;;;;0.10;0.10;;;;;;;-1.50;100.00;100509.91;6163598;23;20415;-74
2023/01/20 06:17:09;;;;;;;0.10;0.10;;;;;;;-1.47;100.00;100512.19;6207397;23;20084;-76
2023/01/20 06:19:35;;;;;;;0.00;0.00;;;;;;;-1.45;100.00;100518.19;6184703;23;20008;-75
2023/01/20 06:22:00;;;;;;;0.00;0.00;;;;;;;-1.44;100.00;100511.81;6210058;23;20343;-76
2023/01/20 06:24:26;;;;;;;0.10;0.10;;;;;;;-1.37;100.00;100520.81;6204868;23;20416;-76
2023/01/20 06:26:51;;;;;;;0.10;0.10;;;;;;;-1.34;100.00;100515.06;6210225;23;20015;-76
2023/01/20 06:29:17;;;;;;;0.10;0.10;;;;;;;-1.33;100.00;100521.25;6180186;23;20012;-76
2023/01/20 06:31:43;;;;;;;0.00;0.00;;;;;;;-1.33;100.00;100516.75;6210074;23;20011;-76
2023/01/20 06:34:10;;;;;;;0.00;0.00;;;;;;;-1.36;100.00;100522.44;6183584;23;20012;-77
2023/01/20 06:36:35;;;;;;;0.10;0.10;;;;;;;-1.41;100.00;100520.31;6183264;23;20035;-77
2023/01/20 06:39:01;;;;;;;0.10;0.10;;;;;;;-1.47;100.00;100525.63;6183882;23;20427;-77
2023/01/20 06:41:38;;;;;;;0.10;0.10;;;;;;;-1.59;100.00;100522.56;6179612;23;20016;-76
2023/01/20 06:44:03;;;;;;;0.10;0.10;;;;;;;-1.51;100.00;100529.69;6163286;23;20327;-76
2023/01/20 06:46:29;;;;;;;0.00;0.00;;;;;;;-1.38;100.00;100534.41;6180939;23;20009;-77
2023/01/20 06:48:59;;;;;;;0.08;0.08;;;;;;;-1.32;100.00;100531.78;6208814;23;20008;-75
2023/01/20 06:51:25;;;;;;;0.00;0.00;;;;;;;-1.25;100.00;100539.94;6206222;23;20015;-76
2023/01/20 06:53:52;;;;;;;0.10;0.10;;;;;;;-1.20;100.00;100544.75;6209229;23;20088;-76
2023/01/20 06:56:17;;;;;;;0.00;0.00;;;;;;;-1.17;100.00;100542.53;6181320;23;20519;-75
2023/01/20 06:58:43;;;;;;;0.00;0.00;;;;;;;-1.13;100.00;100543.00;6183885;23;20028;-76
2023/01/20 07:01:14;;;;;;;0.10;0.10;;;;;;;-1.10;100.00;100543.44;6183065;23;20458;-76
2023/01/20 07:03:42;;;;;;;0.10;0.10;;;;;;;-1.08;100.00;100532.53;6206449;23;20004;-74
2023/01/20 07:06:30;;;;;;;0.00;0.00;;;;;;;-1.05;100.00;100550.97;6209260;23;20011;-76
2023/01/20 07:08:57;;;;;;;0.10;0.10;;;;;;;-1.17;100.00;100547.88;6209227;23;20079;-76
2023/01/20 07:11:23;;;;;;;0.10;0.10;;;;;;;-1.29;100.00;100539.47;6183776;23;20088;-78
2023/01/20 07:13:50;;;;;;;0.10;0.10;;;;;;;-1.41;100.00;100540.97;6207052;23;20337;-77
2023/01/20 07:16:16;;;;;;;0.00;0.00;;;;;;;-1.53;100.00;100527.19;6210249;23;20003;-80
2023/01/20 07:18:45;;;;;;;0.10;0.10;;;;;;;-1.59;100.00;100528.75;6207392;23;20000;-78
2023/01/20 07:21:11;;;;;;;0.10;0.10;;;;;;;-1.58;100.00;100543.81;6211397;23;19997;-78
2023/01/20 07:23:36;;;;;;;0.00;0.00;;;;;;;-1.73;100.00;100537.59;6206254;23;20019;-78
2023/01/20 07:26:07;;;;;;;0.10;0.10;;;;;;;-1.81;100.00;100543.03;6211547;23;20095;-77
2023/01/20 07:28:34;;;;;;;0.10;0.10;;;;;;;-1.77;100.00;100555.91;6212087;23;20016;-78
2023/01/20 07:31:26;;;;;;;0.10;0.10;;;;;;;-1.78;100.00;100561.47;6216798;23;20009;-78
2023/01/20 07:33:54;;;;;;;0.10;0.10;;;;;;;-1.87;100.00;100551.81;6213751;23;20096;-79
2023/01/20 07:36:19;;;;;;;0.10;0.10;;;;;;;-1.86;100.00;100565.03;6210444;23;20049;-80
2023/01/20 07:38:54;;;;;;;0.10;0.10;;;;;;;-1.87;100.00;100554.47;6188308;23;20420;-79
2023/01/20 07:41:20;;;;;;;0.10;0.10;;;;;;;-1.72;100.00;100571.44;6212762;23;20427;-79
2023/01/20 07:43:49;;;;;;;0.10;0.10;;;;;;;-1.76;100.00;100559.41;6208876;23;20000;-78
2023/01/20 07:46:15;;;;;;;0.10;0.10;;;;;;;-1.82;100.00;100560.97;6211617;23;20004;-79
2023/01/20 07:48:40;;;;;;;0.00;0.00;;;;;;;-1.72;100.00;100571.44;6208942;23;20039;-81
2023/01/20 07:51:09;;;;;;;0.10;0.10;;;;;;;-1.61;100.00;100579.06;6213545;23;20012;-79
2023/01/20 07:53:39;;;;;;;0.00;0.00;;;;;;;-1.61;100.00;100576.38;6208949;23;20134;-79
2023/01/20 07:56:10;;;;;;;0.10;0.10;;;;;;;-1.68;100.00;100594.22;6212760;23;20414;-80
2023/01/20 07:58:36;;;;;;;0.10;0.10;;;;;;;-1.74;100.00;100594.91;6210355;23;20008;-77
2023/01/20 08:01:12;;;;;;;0.10;0.10;;;;;;;-1.76;100.00;100602.31;6211596;23;19997;-79
2023/01/20 08:03:38;;;;;;;0.00;0.00;;;;;;;-1.84;100.00;100599.69;6209064;23;20027;-77
2023/01/20 08:06:15;;;;;;;0.10;0.10;;;;;;;-1.84;100.00;100592.50;6215984;23;20075;-79
2023/01/20 08:08:41;;;;;;;0.10;0.10;;;;;;;-1.75;100.00;100601.31;6209236;23;20059;-76
2023/01/20 08:11:09;;;;;;;0.10;0.10;;;;;;;-1.68;100.00;100610.31;6209048;23;20020;-77
2023/01/20 08:13:34;;;;;;;0.00;0.00;;;;;;;-1.64;100.00;100621.47;6204635;23;20001;-77
2023/01/20 08:16:04;;;;;;;0.10;0.10;;;;;;;-1.60;100.00;100626.31;6211211;23;20012;-77
2023/01/20 08:18:31;;;;;;;0.10;0.10;;;;;;;-1.63;100.00;100623.97;6210856;23;20008;-77
2023/01/20 08:20:56;;;;;;;0.10;0.10;;;;;;;-1.59;100.00;100627.97;6183460;23;20088;-77
2023/01/20 08:23:22;;;;;;;0.10;0.10;;;;;;;-1.46;100.00;100635.41;6210401;23;20078;-76
2023/01/20 08:25:47;;;;;;;0.10;0.10;;;;;;;-1.35;100.00;100644.03;6181141;23;20164;-76
2023/01/20 08:28:13;;;;;;;0.00;0.00;;;;;;;-1.25;100.00;100637.38;6211619;23;20015;-76
2023/01/20 08:30:43;;;;;;;0.10;0.10;;;;;;;-1.18;100.00;100648.22;6181441;23;20028;-77
2023/01/20 08:33:08;;;;;;;0.00;0.00;;;;;;;-1.10;100.00;100644.63;6184991;23;20032;-77
2023/01/20 08:35:35;;;;;;;0.10;0.10;;;;;;;-0.99;100.00;100641.47;6184629;23;20017;-76
2023/01/20 08:38:02;;;;;;;0.10;0.10;;;;;;;-0.95;100.00;100648.16;6179410;23;20008;-77
2023/01/20 08:40:27;;;;;;;0.10;0.10;;;;;;;-0.90;100.00;100639.53;6212363;23;20001;-77
2023/01/20 08:42:52;;;;;;;0.00;0.00;;;;;;;-0.83;100.00;100650.34;6183047;23;20019;-77
2023/01/20 08:45:20;;;;;;;0.00;0.00;;;;;;;-0.80;100.00;100658.88;6210670;23;20423;-77
2023/01/20 08:47:46;;;;;;;0.10;0.10;;;;;;;-0.75;100.00;100671.75;6209368;23;20099;-77
2023/01/20 08:50:13;;;;;;;0.00;0.00;;;;;;;-0.72;100.00;100663.31;6209883;23;20416;-78
2023/01/20 08:52:40;;;;;;;0.10;0.10;;;;;;;-0.69;100.00;100662.94;6211827;23;20043;-77
2023/01/20 08:55:06;;;;;;;0.00;0.00;;;;;;;-0.55;100.00;100670.16;6207492;23;20004;-76
2023/01/20 08:57:32;;;;;;;0.00;0.00;;;;;;;-0.51;100.00;100673.31;6209818;23;20431;-80
2023/01/20 08:59:57;;;;;;;0.00;0.00;;;;;;;-0.51;100.00;100670.63;6156799;23;20005;-79
2023/01/20 09:02:23;;;;;;;0.03;0.03;;;;;;;-0.49;100.00;100667.75;6210408;23;20009;-77
2023/01/20 09:04:49;;;;;;;0.00;0.00;;;;;;;-0.39;100.00;100679.06;6182033;23;20481;-78
2023/01/20 09:07:16;;;;;;;0.10;0.10;;;;;;;-0.28;100.00;100683.09;6184812;23;20008;-79
2023/01/20 09:09:47;;;;;;;0.10;0.10;;;;;;;-0.27;100.00;100676.72;6185523;23;20085;-77
2023/01/20 09:12:18;;;;;;;0.10;0.10;;;;;;;-0.21;100.00;100670.56;6208746;23;20020;-78
2023/01/20 09:14:43;;;;;;;0.10;0.10;;;;;;;-0.06;100.00;100686.66;6205745;23;20024;-79
2023/01/20 09:17:08;;;;;;;0.00;0.00;;;;;;;0.00;100.00;100685.94;6187089;23;20005;-77
2023/01/20 09:19:34;;;;;;;0.00;0.00;;;;;;;0.12;100.00;100697.84;6205631;23;20007;-77
2023/01/20 09:21:59;;;;;;;0.00;0.00;;;;;;;0.24;100.00;100698.16;6208432;23;20009;-78
2023/01/20 09:24:25;;;;;;;0.10;0.10;;;;;;;0.36;100.00;100703.03;6207036;23;20039;-78
2023/01/20 09:26:51;;;;;;;0.00;0.00;;;;;;;0.52;100.00;100703.59;6204866;23;20012;-78
2023/01/20 09:29:18;;;;;;;0.10;0.10;;;;;;;0.92;100.00;100696.88;6184810;23;20489;-78
2023/01/20 09:31:57;;;;;;;0.00;0.00;;;;;;;3.61;100.00;100710.78;6210136;23;20020;-78
2023/01/20 09:34:25;;;;;;;0.00;0.00;;;;;;;7.97;100.00;100734.50;6205954;23;20490;-77
2023/01/20 09:36:56;;;;;;;0.10;0.10;;;;;;;11.22;100.00;100731.66;6184926;23;20083;-78
2023/01/20 09:45:57;;;;;;;0.10;0.10;;;;;;;14.05;100.00;100741.19;6211952;23;20023;-78
2023/01/20 09:54:25;;;;;;;0.00;0.00;;;;;;;15.10;100.00;100749.34;6211006;23;20022;-77
2023/01/20 09:56:55;;;;;;;0.00;0.00;;;;;;;15.68;100.00;100758.69;6204772;23;20001;-77
2023/01/20 09:59:35;;;;;;;0.00;0.00;;;;;;;16.31;100.00;100749.44;6209680;23;20004;-77
2023/01/20 10:02:06;;;;;;;0.00;0.00;;;;;;;17.14;100.00;100765.59;6205985;23;20459;-77
2023/01/20 10:04:35;;;;;;;0.00;0.00;;;;;;;18.18;96.25;100779.19;6209875;23;20005;-76
2023/01/20 10:07:33;;;;;;;0.00;0.00;;;;;;;18.54;91.18;100764.56;6205156;23;20004;-77
2023/01/20 10:10:09;;;;;;;0.00;0.00;;;;;;;18.85;88.28;100783.22;6204194;23;20012;-76
2023/01/20 10:12:46;;;;;;;0.00;0.00;;;;;;;19.02;88.23;100783.41;6208242;23;19996;-76
2023/01/20 10:15:19;;;;;;;0.10;0.10;;;;;;;18.90;87.18;100780.38;6206259;23;20092;-76
2023/01/20 10:18:18;;;;;;;0.10;0.10;;;;;;;18.94;88.13;100770.31;6210959;23;20032;-78
2023/01/20 10:20:59;;;;;;;0.00;0.00;;;;;;;18.88;88.11;100793.75;5037394;27;20369;-78
2023/01/20 10:23:48;;;;;;;0.08;0.08;;;;;;;18.72;86.94;100795.19;5048389;28;20033;-76
2023/01/20 10:26:58;;;;;;;0.00;0.00;;;;;;;18.84;86.26;100799.03;5016560;28;20037;-77
2023/01/20 10:29:49;;;;;;;0.00;0.00;;;;;;;19.93;85.67;100799.13;5027975;28;20021;-76
2023/01/20 10:32:36;;;;;;;0.00;0.00;;;;;;;20.30;86.12;100789.47;5021274;28;20059;-77
2023/01/20 10:35:24;;;;;;;0.00;0.00;;;;;;;20.86;84.50;100802.78;5027380;28;20052;-79
2023/01/20 10:37:54;;;;;;;0.00;0.00;;;;;;;21.36;82.54;100805.06;5022924;28;20030;-77
2023/01/20 10:40:44;;;;;;;0.00;0.00;;;;;;;22.22;84.68;100804.28;5037140;28;20064;-80
2023/01/20 10:43:15;;;;;;;0.00;0.00;;;;;;;22.45;80.10;100807.63;5022448;28;20026;-79
2023/01/20 10:46:11;;;;;;;0.00;0.00;;;;;;;22.70;75.26;100825.31;5028218;28;20061;-77
2023/01/20 10:48:49;;;;;;;0.10;0.10;;;;;;;22.61;77.31;100816.19;5061015;28;20037;-77
2023/01/20 10:51:23;;;;;;;0.05;0.05;;;;;;;22.84;83.18;100811.91;5022608;28;20025;-79
2023/01/20 10:53:52;;;;;;;;;;;;;;;22.98;75.71;100821.97;5018223;28;20032;-80
2023/01/20 10:56:26;;;;;;;0.00;0.00;;;;;;;23.18;77.33;100815.59;5049000;28;19935;-79
2023/01/20 10:59:01;;;;;;;0.00;0.00;;;;;;;23.60;77.02;100808.31;5062280;28;20029;-77
2023/01/20 11:01:31;;;;;;;0.00;0.00;;;;;;;24.03;78.15;100812.56;5033921;28;20034;-76
2023/01/20 11:03:56;;;;;;;0.00;0.00;;;;;;;24.68;82.91;100812.66;5035467;28;20160;-77
2023/01/20 11:06:25;;;;;;;0.08;0.08;;;;;;;26.03;72.24;100815.19;5013683;28;20045;-77
2023/01/20 11:08:52;;;;;;;0.00;0.00;;;;;;;25.06;73.16;100816.97;5021576;28;20014;-78
2023/01/20 11:11:22;;;;;;;0.00;0.00;;;;;;;24.62;77.90;100818.84;5022706;28;20034;-77
2023/01/20 11:13:50;;;;;;;0.00;0.00;;;;;;;25.99;77.85;100814.25;5032380;28;20029;-78
2023/01/20 11:16:24;;;;;;;0.00;0.00;;;;;;;27.18;74.20;100820.59;5037295;28;20068;-77
2023/01/20 11:19:03;;;;;;;0.00;0.00;;;;;;;27.64;74.08;100814.28;5027064;28;20084;-80
2023/01/20 11:21:32;;;;;;;0.00;0.00;;;;;;;28.42;73.18;100818.81;5031026;28;20316;-79
2023/01/20 11:23:58;;;;;;;0.00;0.00;;;;;;;29.03;74.43;100820.47;5040402;28;20030;-80
2023/01/20 11:26:35;;;;;;;0.00;0.00;;;;;;;29.30;68.12;100811.16;5029028;28;20025;-80
2023/01/20 11:29:10;;;;;;;0.00;0.00;;;;;;;29.40;71.74;100818.91;5033385;28;20098;-80
2023/01/20 11:31:46;;;;;;;0.00;0.00;;;;;;;29.23;72.85;100809.06;5032121;28;20072;-79
2023/01/20 11:34:28;;;;;;;0.00;0.00;;;;;;;29.57;74.81;100814.63;5013568;28;20053;-80
2023/01/20 11:37:17;;;;;;;0.00;0.00;;;;;;;30.45;73.78;100815.81;5017687;28;20714;-80
2023/01/20 11:39:59;;;;;;;0.00;0.00;;;;;;;30.58;72.36;100815.50;5025732;28;20025;-78
2023/01/20 11:42:28;;;;;;;0.00;0.00;;;;;;;31.13;73.31;100812.56;5003312;28;20482;-77
2023/01/20 11:44:57;;;;;;;0.00;0.00;;;;;;;32.15;71.50;100831.28;5004512;28;20112;-77